createdAt,value
2023-05-22T00:01:56.628Z,22.77
2023-05-22T00:04:23.732Z,22.73
2023-05-22T00:06:50.748Z,22.70
2023-05-22T00:09:18.160Z,22.68
2023-05-22T00:11:45.189Z,22.64
2023-05-22T00:14:13.592Z,22.60
2023-05-22T00:16:41.252Z,22.58
2023-05-22T00:19:19.794Z,22.55
2023-05-22T00:21:47.233Z,22.52
2023-05-22T00:24:14.140Z,22.50
2023-05-22T00:26:41.067Z,22.46
2023-05-22T00:29:07.975Z,22.43
2023-05-22T00:31:34.885Z,22.40
2023-05-22T00:34:02.102Z,22.35
2023-05-22T00:36:29.079Z,22.32
2023-05-22T00:38:56.164Z,22.26
2023-05-22T00:41:23.223Z,22.19
2023-05-22T00:43:51.233Z,22.12
2023-05-22T00:46:22.883Z,22.04
2023-05-22T00:48:50.082Z,21.92
2023-05-22T00:51:17.022Z,21.91
2023-05-22T00:53:45.696Z,21.87
2023-05-22T00:56:13.136Z,21.83
2023-05-22T00:58:40.079Z,21.80
2023-05-22T01:01:09.634Z,21.76
2023-05-22T01:03:42.422Z,21.69
2023-05-22T01:06:09.486Z,21.61
2023-05-22T01:08:36.447Z,21.55
2023-05-22T01:11:15.623Z,21.50
2023-05-22T01:13:57.166Z,21.44
2023-05-22T01:16:50.423Z,21.41
2023-05-22T01:19:51.045Z,21.36
2023-05-22T01:23:00.200Z,21.28
2023-05-22T01:26:03.907Z,21.23
2023-05-22T01:29:03.785Z,21.18
2023-05-22T01:31:32.426Z,21.13
2023-05-22T01:34:02.651Z,21.09
2023-05-22T01:36:35.044Z,21.04
2023-05-22T01:39:06.033Z,21.00
2023-05-22T01:41:36.426Z,20.97
2023-05-22T01:44:03.940Z,20.93
2023-05-22T01:46:31.556Z,20.87
2023-05-22T01:48:59.094Z,20.81
2023-05-22T01:51:53.755Z,20.76
2023-05-22T01:54:42.529Z,20.71
2023-05-22T01:57:35.927Z,20.64
2023-05-22T02:00:09.762Z,20.60
2023-05-22T02:03:01.598Z,20.55
2023-05-22T02:05:31.908Z,20.52
2023-05-22T02:08:01.902Z,20.50
2023-05-22T02:10:30.553Z,20.48
2023-05-22T02:12:57.910Z,20.47
2023-05-22T02:15:24.954Z,20.45
2023-05-22T02:17:53.335Z,20.43
2023-05-22T02:20:20.538Z,20.42
2023-05-22T02:22:48.178Z,20.40
2023-05-22T02:25:17.015Z,20.36
2023-05-22T02:27:46.887Z,20.34
2023-05-22T02:30:15.044Z,20.29
2023-05-22T02:32:43.313Z,20.26
2023-05-22T02:35:10.638Z,20.23
2023-05-22T02:37:38.128Z,20.20
2023-05-22T02:40:08.715Z,20.17
2023-05-22T02:42:35.997Z,20.13
2023-05-22T02:45:03.540Z,20.11
2023-05-22T02:47:30.596Z,20.07
2023-05-22T02:50:00.176Z,20.04
2023-05-22T02:52:28.370Z,20.00
2023-05-22T02:54:55.339Z,19.97
2023-05-22T02:57:23.342Z,19.95
2023-05-22T02:59:51.078Z,19.92
2023-05-22T03:02:19.677Z,19.90
2023-05-22T03:04:48.511Z,19.80
2023-05-22T03:07:15.514Z,19.86
2023-05-22T03:09:42.527Z,19.84
2023-05-22T03:12:10.009Z,19.84
2023-05-22T03:14:36.967Z,19.82
2023-05-22T03:17:04.072Z,19.80
2023-05-22T03:19:31.175Z,19.75
2023-05-22T03:21:58.164Z,19.71
2023-05-22T03:24:25.144Z,19.69
2023-05-22T03:26:52.174Z,19.68
2023-05-22T03:29:26.691Z,19.67
2023-05-22T03:31:54.990Z,19.64
2023-05-22T03:34:22.707Z,19.68
2023-05-22T03:36:49.932Z,19.68
2023-05-22T03:39:17.599Z,19.69
2023-05-22T03:41:56.800Z,19.69
2023-05-22T03:44:25.067Z,19.72
2023-05-22T03:46:52.338Z,19.71
2023-05-22T03:49:19.269Z,19.75
2023-05-22T03:51:46.186Z,19.77
2023-05-22T03:54:13.311Z,19.79
2023-05-22T03:56:43.132Z,19.81
2023-05-22T03:59:10.109Z,19.76
2023-05-22T04:01:39.073Z,19.85
2023-05-22T04:04:06.226Z,19.88
2023-05-22T04:06:33.306Z,19.92
2023-05-22T04:09:01.070Z,19.95
2023-05-22T04:11:30.463Z,19.99
2023-05-22T04:13:57.510Z,20.02
2023-05-22T04:16:24.557Z,20.05
2023-05-22T04:18:51.570Z,20.07
2023-05-22T04:21:19.077Z,20.09
2023-05-22T04:23:46.032Z,20.13
2023-05-22T04:26:13.186Z,20.19
2023-05-22T04:28:40.410Z,20.24
2023-05-22T04:31:07.547Z,20.23
2023-05-22T04:33:34.749Z,20.34
2023-05-22T04:36:02.745Z,20.39
2023-05-22T04:38:29.781Z,20.44
2023-05-22T04:40:57.135Z,20.47
2023-05-22T04:43:26.729Z,20.53
2023-05-22T04:45:54.882Z,20.59
2023-05-22T04:48:22.541Z,20.65
2023-05-22T04:50:50.110Z,20.69
2023-05-22T04:53:17.198Z,20.74
2023-05-22T04:55:44.501Z,20.76
2023-05-22T04:58:11.694Z,20.79
2023-05-22T05:00:38.903Z,20.81
2023-05-22T05:03:08.296Z,20.83
2023-05-22T05:05:35.450Z,20.87
2023-05-22T05:08:02.486Z,20.87
2023-05-22T05:10:29.547Z,20.93
2023-05-22T05:12:56.849Z,20.97
2023-05-22T05:15:23.944Z,21.02
2023-05-22T05:17:51.492Z,21.06
2023-05-22T05:20:18.812Z,21.08
2023-05-22T05:22:46.382Z,21.12
2023-05-22T05:25:14.831Z,21.15
2023-05-22T05:27:43.159Z,21.20
2023-05-22T05:30:10.763Z,21.22
2023-05-22T05:33:03.063Z,21.24
2023-05-22T05:35:43.084Z,21.26
2023-05-22T05:38:11.735Z,21.28
2023-05-22T05:40:41.898Z,21.31
2023-05-22T05:43:09.986Z,21.34
2023-05-22T05:45:37.367Z,21.40
2023-05-22T05:48:04.625Z,21.43
2023-05-22T05:50:33.043Z,21.46
2023-05-22T05:53:00.141Z,21.49
2023-05-22T05:55:27.155Z,21.51
2023-05-22T05:57:55.153Z,21.55
2023-05-22T06:00:30.223Z,21.60
2023-05-22T06:02:59.484Z,21.67
2023-05-22T06:05:38.727Z,21.76
2023-05-22T06:08:19.757Z,21.84
2023-05-22T06:10:47.354Z,21.95
2023-05-22T06:13:17.024Z,21.99
2023-05-22T06:15:43.964Z,22.06
2023-05-22T06:18:11.110Z,22.14
2023-05-22T06:20:39.659Z,22.25
2023-05-22T06:23:07.362Z,22.35
2023-05-22T06:25:34.509Z,22.46
2023-05-22T06:28:01.912Z,22.55
2023-05-22T06:30:39.719Z,22.64
2023-05-22T06:33:11.163Z,22.70
2023-05-22T06:35:38.099Z,22.77
2023-05-22T06:38:05.421Z,22.88
2023-05-22T06:40:32.877Z,22.99
2023-05-22T06:43:08.122Z,23.09
2023-05-22T06:45:49.879Z,23.17
2023-05-22T06:48:35.839Z,23.23
2023-05-22T06:51:12.736Z,23.27
2023-05-22T06:53:41.124Z,23.36
2023-05-22T06:56:13.582Z,23.49
2023-05-22T06:58:52.680Z,23.60
2023-05-22T07:01:23.154Z,23.76
2023-05-22T07:04:01.888Z,23.88
2023-05-22T07:06:41.817Z,23.99
2023-05-22T07:09:11.220Z,24.08
2023-05-22T07:11:38.552Z,24.18
2023-05-22T07:14:05.477Z,24.31
2023-05-22T07:16:32.387Z,24.43
2023-05-22T07:18:59.731Z,24.54
2023-05-22T07:21:26.942Z,24.65
2023-05-22T07:23:55.519Z,24.76
2023-05-22T07:26:23.166Z,24.90
2023-05-22T07:29:01.032Z,25.00
2023-05-22T07:31:28.794Z,25.11
2023-05-22T07:33:55.982Z,25.16
2023-05-22T07:36:23.058Z,25.28
2023-05-22T07:38:49.958Z,25.35
2023-05-22T07:41:17.529Z,25.53
2023-05-22T07:43:44.996Z,25.62
2023-05-22T07:46:16.297Z,25.72
2023-05-22T07:48:56.687Z,25.81
2023-05-22T07:51:23.676Z,25.92
2023-05-22T07:53:52.060Z,26.02
2023-05-22T07:56:19.014Z,26.13
2023-05-22T07:58:48.455Z,26.19
2023-05-22T08:01:18.600Z,26.30
2023-05-22T08:03:45.665Z,26.41
2023-05-22T08:06:12.966Z,26.47
2023-05-22T08:08:39.965Z,26.53
2023-05-22T08:11:07.176Z,26.63
2023-05-22T08:13:34.203Z,26.70
2023-05-22T08:16:01.478Z,26.85
2023-05-22T08:18:29.981Z,26.93
2023-05-22T08:20:57.590Z,27.01
2023-05-22T08:23:24.595Z,27.09
2023-05-22T08:25:51.526Z,27.19
2023-05-22T08:28:18.451Z,27.28
2023-05-22T08:30:45.403Z,27.41
2023-05-22T08:33:12.543Z,27.50
2023-05-22T08:35:39.596Z,27.60
2023-05-22T08:38:06.537Z,27.68
2023-05-22T08:40:42.599Z,27.76
2023-05-22T08:43:11.454Z,27.85
2023-05-22T08:45:42.371Z,27.94
2023-05-22T08:48:13.093Z,28.06
2023-05-22T08:50:43.531Z,28.14
2023-05-22T08:53:15.706Z,28.25
2023-05-22T08:55:42.840Z,28.32
2023-05-22T08:58:11.576Z,28.35
2023-05-22T09:00:38.791Z,28.46
2023-05-22T09:03:07.010Z,28.47
2023-05-22T09:05:34.169Z,28.50
2023-05-22T09:08:16.085Z,28.55
2023-05-22T09:10:46.436Z,28.61
2023-05-22T09:13:29.935Z,28.68
2023-05-22T09:16:11.444Z,28.73
2023-05-22T09:18:39.695Z,28.79
2023-05-22T09:21:21.432Z,28.85
2023-05-22T09:23:54.785Z,28.90
2023-05-22T09:26:22.360Z,28.94
2023-05-22T09:28:49.334Z,28.98
2023-05-22T09:31:16.494Z,29.02
2023-05-22T09:33:44.984Z,29.05
2023-05-22T09:36:12.150Z,29.07
2023-05-22T09:38:39.904Z,29.11
2023-05-22T09:41:06.839Z,29.14
2023-05-22T09:43:33.983Z,29.19
2023-05-22T09:46:02.484Z,29.22
2023-05-22T09:48:29.760Z,29.29
2023-05-22T09:51:00.219Z,29.34
2023-05-22T09:53:31.325Z,29.37
2023-05-22T09:56:00.403Z,29.42
2023-05-22T09:58:30.956Z,29.46
2023-05-22T10:00:59.356Z,29.48
2023-05-22T10:03:27.506Z,29.49
2023-05-22T10:05:58.545Z,29.53
2023-05-22T10:08:35.383Z,29.56
2023-05-22T10:11:03.568Z,29.61
2023-05-22T10:13:31.359Z,29.67
2023-05-22T10:15:58.894Z,29.68
2023-05-22T10:18:26.898Z,29.69
2023-05-22T10:20:54.206Z,29.74
2023-05-22T10:23:22.557Z,29.76
2023-05-22T10:25:50.533Z,29.76
2023-05-22T10:28:26.139Z,29.79
2023-05-22T10:31:11.670Z,29.81
2023-05-22T10:34:07.169Z,29.84
2023-05-22T10:37:47.499Z,29.90
2023-05-22T10:40:29.191Z,29.97
2023-05-22T10:43:06.823Z,29.99
2023-05-22T10:45:33.777Z,29.99
2023-05-22T10:48:09.576Z,30.02
2023-05-22T10:50:36.817Z,30.08
2023-05-22T10:53:26.036Z,30.09
2023-05-22T10:55:55.358Z,30.13
2023-05-22T10:58:30.618Z,30.15
2023-05-22T11:01:18.166Z,30.18
2023-05-22T11:04:06.922Z,30.23
2023-05-22T11:06:45.728Z,30.30
2023-05-22T11:09:30.085Z,30.35
2023-05-22T11:12:24.799Z,30.36
2023-05-22T11:14:57.411Z,30.41
2023-05-22T11:17:32.645Z,30.47
2023-05-22T11:20:05.595Z,30.53
2023-05-22T11:22:42.250Z,30.58
2023-05-22T11:25:13.462Z,30.62
2023-05-22T11:27:41.576Z,30.63
2023-05-22T11:30:12.600Z,30.69
2023-05-22T11:32:44.384Z,30.74
2023-05-22T11:35:17.147Z,30.76
2023-05-22T11:37:44.478Z,30.76
2023-05-22T11:40:16.261Z,30.79
2023-05-22T11:42:43.228Z,30.83
2023-05-22T11:45:11.070Z,30.89
2023-05-22T11:47:38.668Z,30.90
2023-05-22T11:50:08.959Z,30.92
2023-05-22T11:52:38.054Z,30.90
2023-05-22T11:55:06.528Z,30.84
2023-05-22T11:57:34.792Z,30.82
2023-05-22T12:00:08.308Z,30.80
2023-05-22T12:02:47.686Z,30.77
2023-05-22T12:05:16.482Z,30.79
2023-05-22T12:07:43.820Z,30.79
2023-05-22T12:10:11.118Z,30.76
2023-05-22T12:12:38.918Z,30.74
2023-05-22T12:15:07.370Z,30.76
2023-05-22T12:17:38.045Z,30.78
2023-05-22T12:20:06.264Z,30.83
2023-05-22T12:22:33.177Z,30.88
2023-05-22T12:25:00.127Z,30.92
2023-05-22T12:27:33.351Z,30.94
2023-05-22T12:30:10.578Z,30.93
2023-05-22T12:32:37.550Z,30.92
2023-05-22T12:35:04.903Z,30.94
2023-05-22T12:37:34.043Z,30.95
2023-05-22T12:40:04.158Z,30.96
2023-05-22T12:42:31.193Z,30.98
2023-05-22T12:44:59.886Z,30.96
2023-05-22T12:47:26.928Z,31.01
2023-05-22T12:49:53.892Z,31.03
2023-05-22T12:52:21.055Z,31.02
2023-05-22T12:54:47.947Z,30.98
2023-05-22T12:57:16.628Z,30.92
2023-05-22T12:59:43.631Z,30.84
2023-05-22T13:02:10.712Z,30.83
2023-05-22T13:04:37.666Z,30.84
2023-05-22T13:07:04.614Z,30.87
2023-05-22T13:09:31.486Z,30.91
2023-05-22T13:11:58.453Z,30.94
2023-05-22T13:14:25.432Z,30.96
2023-05-22T13:16:52.332Z,30.97
2023-05-22T13:19:19.279Z,30.98
2023-05-22T13:21:46.241Z,31.01
2023-05-22T13:24:13.144Z,31.03
2023-05-22T13:26:40.071Z,31.05
2023-05-22T13:29:07.004Z,31.04
2023-05-22T13:31:37.328Z,31.03
2023-05-22T13:34:04.779Z,30.97
2023-05-22T13:36:31.935Z,30.94
2023-05-22T13:38:58.970Z,30.93
2023-05-22T13:41:26.116Z,30.91
2023-05-22T13:43:53.207Z,30.92
2023-05-22T13:46:22.122Z,30.95
2023-05-22T13:48:49.328Z,31.02
2023-05-22T13:51:16.299Z,31.05
2023-05-22T13:53:43.253Z,31.09
2023-05-22T13:56:10.349Z,31.09
2023-05-22T13:58:37.280Z,31.02
2023-05-22T14:01:04.229Z,30.97
2023-05-22T14:03:31.343Z,30.98
2023-05-22T14:05:58.282Z,31.03
2023-05-22T14:08:25.440Z,31.06
2023-05-22T14:10:52.403Z,31.09
2023-05-22T14:13:19.468Z,31.12
2023-05-22T14:15:46.984Z,31.16
2023-05-22T14:18:16.260Z,31.17
2023-05-22T14:20:44.447Z,31.19
2023-05-22T14:23:12.940Z,31.18
2023-05-22T14:25:43.285Z,31.16
2023-05-22T14:28:13.933Z,31.12
2023-05-22T14:30:41.393Z,31.17
2023-05-22T14:33:08.446Z,31.19
2023-05-22T14:35:35.404Z,31.21
2023-05-22T14:38:02.464Z,31.17
2023-05-22T14:40:29.436Z,31.15
2023-05-22T14:42:56.449Z,31.13
2023-05-22T14:45:23.570Z,31.13
2023-05-22T14:47:50.696Z,31.13
2023-05-22T14:50:20.430Z,31.16
2023-05-22T14:52:49.124Z,31.18
2023-05-22T14:55:16.824Z,31.23
2023-05-22T14:57:43.802Z,31.25
2023-05-22T15:00:12.176Z,31.28
2023-05-22T15:02:39.504Z,31.32
2023-05-22T15:05:09.806Z,31.34
2023-05-22T15:07:44.095Z,31.38
2023-05-22T15:10:13.028Z,31.40
2023-05-22T15:12:40.105Z,31.40
2023-05-22T15:15:07.886Z,31.38
2023-05-22T15:17:34.871Z,31.35
2023-05-22T15:20:01.882Z,31.31
2023-05-22T15:22:28.821Z,31.21
2023-05-22T15:25:11.798Z,31.11
2023-05-22T15:27:39.772Z,31.06
2023-05-22T15:30:09.681Z,31.03
2023-05-22T15:32:37.869Z,31.05
2023-05-22T15:35:06.527Z,31.06
2023-05-22T15:37:34.039Z,31.09
2023-05-22T15:40:02.444Z,31.10
2023-05-22T15:42:30.063Z,31.13
2023-05-22T15:44:59.780Z,31.13
2023-05-22T15:47:26.786Z,31.19
2023-05-22T15:49:53.753Z,31.23
2023-05-22T15:52:23.317Z,31.26
2023-05-22T15:54:50.426Z,31.28
2023-05-22T15:57:17.610Z,31.30
2023-05-22T15:59:47.099Z,31.32
2023-05-22T16:02:14.387Z,31.33
2023-05-22T16:04:41.407Z,31.35
2023-05-22T16:07:08.317Z,31.33
2023-05-22T16:09:36.113Z,31.34
2023-05-22T16:12:03.814Z,31.32
2023-05-22T16:14:31.850Z,31.28
2023-05-22T16:16:58.924Z,31.23
2023-05-22T16:19:27.013Z,31.18
2023-05-22T16:21:53.961Z,31.11
2023-05-22T16:24:20.896Z,30.96
2023-05-22T16:26:47.807Z,30.75
2023-05-22T16:29:14.779Z,30.47
2023-05-22T16:31:41.798Z,30.27
2023-05-22T16:34:08.800Z,30.09
2023-05-22T16:36:36.052Z,29.94
2023-05-22T16:39:02.988Z,29.74
2023-05-22T16:41:29.957Z,29.67
2023-05-22T16:43:56.929Z,29.58
2023-05-22T16:46:23.861Z,29.47
2023-05-22T16:48:50.873Z,29.44
2023-05-22T16:51:17.787Z,29.44
2023-05-22T16:53:46.528Z,29.42
2023-05-22T16:56:14.507Z,29.42
2023-05-22T16:58:41.458Z,29.44
2023-05-22T17:01:08.633Z,29.53
2023-05-22T17:03:35.937Z,29.64
2023-05-22T17:06:03.212Z,29.73
2023-05-22T17:08:30.559Z,29.79
2023-05-22T17:10:57.522Z,29.82
2023-05-22T17:13:24.449Z,29.87
2023-05-22T17:15:51.755Z,29.90
2023-05-22T17:18:19.759Z,29.87
2023-05-22T17:20:51.359Z,29.84
2023-05-22T17:23:18.388Z,29.80
2023-05-22T17:25:48.466Z,29.77
2023-05-22T17:28:15.706Z,29.67
2023-05-22T17:30:44.310Z,29.57
2023-05-22T17:33:12.257Z,29.45
2023-05-22T17:35:39.655Z,29.23
2023-05-22T17:38:08.419Z,29.06
2023-05-22T17:40:44.799Z,28.91
2023-05-22T17:43:13.759Z,28.77
2023-05-22T17:45:41.748Z,28.69
2023-05-22T17:48:08.881Z,28.59
2023-05-22T17:50:36.037Z,28.49
2023-05-22T17:53:03.248Z,28.32
2023-05-22T17:55:30.231Z,28.17
2023-05-22T17:57:57.301Z,28.02
2023-05-22T18:00:24.315Z,27.84
2023-05-22T18:02:51.582Z,27.76
2023-05-22T18:05:18.661Z,27.63
2023-05-22T18:07:45.648Z,27.51
2023-05-22T18:10:12.604Z,27.41
2023-05-22T18:12:39.545Z,27.42
2023-05-22T18:15:09.453Z,27.34
2023-05-22T18:17:36.497Z,27.26
2023-05-22T18:20:06.819Z,27.17
2023-05-22T18:22:34.924Z,27.12
2023-05-22T18:25:02.425Z,27.06
2023-05-22T18:27:29.404Z,27.04
2023-05-22T18:29:56.308Z,27.01
2023-05-22T18:32:23.768Z,26.97
2023-05-22T18:34:51.941Z,26.90
2023-05-22T18:37:22.708Z,26.83
2023-05-22T18:39:49.659Z,26.74
2023-05-22T18:42:16.590Z,26.72
2023-05-22T18:44:43.552Z,26.64
2023-05-22T18:47:10.525Z,26.55
2023-05-22T18:49:37.493Z,26.45
2023-05-22T18:52:04.554Z,26.37
2023-05-22T18:54:31.512Z,26.28
2023-05-22T18:56:58.409Z,26.23
2023-05-22T18:59:25.525Z,26.17
2023-05-22T19:01:52.437Z,26.07
2023-05-22T19:04:19.436Z,25.99
2023-05-22T19:06:46.387Z,25.91
2023-05-22T19:09:13.562Z,25.81
2023-05-22T19:11:40.577Z,25.76
2023-05-22T19:14:07.574Z,25.71
2023-05-22T19:16:34.578Z,25.66
2023-05-22T19:19:01.653Z,25.59
2023-05-22T19:21:28.579Z,25.49
2023-05-22T19:23:55.494Z,25.37
2023-05-22T19:26:22.434Z,25.27
2023-05-22T19:28:49.372Z,25.17
2023-05-22T19:31:16.531Z,25.11
2023-05-22T19:33:43.814Z,25.07
2023-05-22T19:36:10.826Z,24.99
2023-05-22T19:38:37.728Z,24.93
2023-05-22T19:41:04.645Z,24.86
2023-05-22T19:43:31.792Z,24.82
2023-05-22T19:45:58.766Z,24.76
2023-05-22T19:48:26.889Z,24.81
2023-05-22T19:50:53.823Z,24.81
2023-05-22T19:53:20.737Z,24.83
2023-05-22T19:55:47.667Z,24.79
2023-05-22T19:58:14.606Z,24.78
2023-05-22T20:00:42.363Z,24.78
2023-05-22T20:03:09.696Z,24.77
2023-05-22T20:05:36.830Z,24.78
2023-05-22T20:08:03.817Z,24.76
2023-05-22T20:10:32.328Z,24.74
2023-05-22T20:13:00.320Z,24.71
2023-05-22T20:15:27.429Z,24.70
2023-05-22T20:17:54.911Z,24.69
2023-05-22T20:20:24.576Z,24.66
2023-05-22T20:22:52.763Z,24.65
2023-05-22T20:25:21.214Z,24.57
2023-05-22T20:27:48.149Z,24.58
2023-05-22T20:30:15.115Z,24.55
2023-05-22T20:32:46.538Z,24.52
2023-05-22T20:35:13.942Z,24.50
2023-05-22T20:37:41.609Z,24.46
2023-05-22T20:40:09.498Z,24.43
2023-05-22T20:42:37.744Z,24.39
2023-05-22T20:45:08.778Z,24.33
2023-05-22T20:47:36.282Z,24.28
2023-05-22T20:50:03.312Z,24.23
2023-05-22T20:52:33.677Z,24.21
2023-05-22T20:55:00.656Z,24.14
2023-05-22T20:57:27.589Z,24.11
2023-05-22T20:59:54.587Z,24.06
2023-05-22T21:02:21.521Z,23.99
2023-05-22T21:04:48.459Z,24.00
2023-05-22T21:07:15.410Z,23.98
2023-05-22T21:09:42.332Z,23.96
2023-05-22T21:12:09.314Z,23.93
2023-05-22T21:14:36.231Z,23.90
2023-05-22T21:17:03.487Z,23.86
2023-05-22T21:19:30.518Z,23.82
2023-05-22T21:21:57.537Z,23.78
2023-05-22T21:24:24.464Z,23.76
2023-05-22T21:26:51.378Z,23.71
2023-05-22T21:29:18.289Z,23.68
2023-05-22T21:31:45.401Z,23.61
2023-05-22T21:34:12.347Z,23.53
2023-05-22T21:36:39.265Z,23.45
2023-05-22T21:39:06.163Z,23.41
2023-05-22T21:41:33.104Z,23.40
2023-05-22T21:44:00.037Z,23.38
2023-05-22T21:46:26.976Z,23.36
2023-05-22T21:48:53.973Z,23.34
2023-05-22T21:51:20.894Z,23.29
2023-05-22T21:53:47.801Z,23.28
2023-05-22T21:56:14.776Z,23.25
2023-05-22T21:58:41.973Z,23.22
2023-05-22T22:01:09.994Z,23.18
2023-05-22T22:03:38.854Z,23.02
2023-05-22T22:06:06.356Z,22.83
2023-05-22T22:08:33.313Z,22.64
2023-05-22T22:11:00.235Z,22.45
2023-05-22T22:13:27.128Z,22.30
2023-05-22T22:15:54.070Z,22.26
2023-05-22T22:18:20.987Z,22.24
2023-05-22T22:20:50.166Z,22.23
2023-05-22T22:23:17.281Z,22.26
2023-05-22T22:25:44.200Z,22.29
2023-05-22T22:28:11.336Z,22.30
2023-05-22T22:30:38.446Z,22.33
2023-05-22T22:33:05.516Z,22.35
2023-05-22T22:35:32.500Z,22.37
2023-05-22T22:37:59.466Z,22.38
2023-05-22T22:40:37.781Z,22.37
2023-05-22T22:43:04.697Z,22.39
2023-05-22T22:45:31.779Z,22.38
2023-05-22T22:48:00.491Z,22.40
2023-05-22T22:50:28.080Z,22.39
2023-05-22T22:52:55.532Z,22.40
2023-05-22T22:55:22.561Z,22.37
2023-05-22T22:57:50.171Z,22.35
2023-05-22T23:00:20.514Z,22.33
2023-05-22T23:02:47.518Z,22.30
2023-05-22T23:05:16.585Z,22.30
2023-05-22T23:07:44.326Z,22.29
2023-05-22T23:10:11.260Z,22.27
2023-05-22T23:12:38.179Z,22.20
2023-05-22T23:15:06.003Z,22.17
2023-05-22T23:17:32.956Z,22.13
2023-05-22T23:19:59.896Z,22.10
2023-05-22T23:22:26.801Z,22.08
2023-05-22T23:24:53.711Z,22.07
2023-05-22T23:27:20.743Z,22.05
2023-05-22T23:29:47.670Z,22.01
2023-05-22T23:32:14.952Z,21.97
2023-05-22T23:34:42.406Z,21.94
2023-05-22T23:37:09.564Z,21.92
2023-05-22T23:39:36.539Z,21.89
2023-05-22T23:42:03.810Z,21.86
2023-05-22T23:44:31.326Z,21.82
2023-05-22T23:46:58.297Z,21.79
2023-05-22T23:49:26.413Z,21.74
2023-05-22T23:51:53.383Z,21.70
2023-05-22T23:54:20.360Z,21.66
2023-05-22T23:56:47.719Z,21.65
2023-05-22T23:59:15.283Z,21.64
